createdAt,value
2018-12-22T00:00:44.518Z,65.76
2018-12-22T00:05:46.769Z,64.35
2018-12-22T00:10:48.994Z,64.62
2018-12-22T00:15:51.332Z,64.95
2018-12-22T00:20:53.629Z,63.48
2018-12-22T00:25:55.875Z,64.26
2018-12-22T00:30:58.144Z,64.77
2018-12-22T00:36:00.441Z,62.76
2018-12-22T00:41:02.853Z,63.96
2018-12-22T00:46:05.109Z,63.66
2018-12-22T00:51:07.414Z,63.42
2018-12-22T00:56:09.672Z,64.73
2018-12-22T01:01:12.042Z,66.03
2018-12-22T01:06:15.244Z,66.68
2018-12-22T01:11:17.472Z,66.85
2018-12-22T01:16:19.878Z,66.74
2018-12-22T01:21:23.017Z,65.95
2018-12-22T01:26:25.241Z,66.03
2018-12-22T01:31:28.158Z,66.04
2018-12-22T01:36:30.398Z,66.39
2018-12-22T01:41:32.653Z,67.38
2018-12-22T01:46:34.965Z,65.22
2018-12-22T01:51:37.197Z,65.35
2018-12-22T01:56:39.486Z,65.79
2018-12-22T02:01:41.725Z,66.27
2018-12-22T02:06:43.949Z,65.15
2018-12-22T02:11:47.304Z,66.44
2018-12-22T02:16:49.605Z,65.48
2018-12-22T02:21:53.093Z,66.42
2018-12-22T02:26:55.315Z,66.47
2018-12-22T02:31:58.570Z,67.70
2018-12-22T02:37:00.835Z,66.49
2018-12-22T02:42:03.117Z,66.12
2018-12-22T02:47:05.689Z,65.59
2018-12-22T02:52:08.072Z,66.15
2018-12-22T02:57:10.341Z,67.47
2018-12-22T03:02:12.576Z,66.80
2018-12-22T03:07:15.012Z,67.06
2018-12-22T03:12:17.237Z,67.64
2018-12-22T03:17:19.633Z,66.74
2018-12-22T03:22:21.959Z,66.29
2018-12-22T03:27:24.354Z,66.68
2018-12-22T03:32:26.787Z,66.99
2018-12-22T03:37:29.095Z,67.00
2018-12-22T03:42:31.364Z,68.54
2018-12-22T03:47:33.702Z,69.46
2018-12-22T03:52:35.997Z,68.85
2018-12-22T03:57:38.240Z,70.33
2018-12-22T04:02:40.488Z,70.62
2018-12-22T04:07:42.746Z,72.01
2018-12-22T04:12:45.116Z,72.50
2018-12-22T04:17:47.388Z,74.74
2018-12-22T04:22:49.656Z,73.48
2018-12-22T04:27:51.945Z,73.45
2018-12-22T04:32:54.308Z,74.16
2018-12-22T04:37:56.585Z,75.94
2018-12-22T04:42:58.831Z,77.12
2018-12-22T04:48:01.218Z,78.58
2018-12-22T04:53:03.521Z,76.69
2018-12-22T04:58:05.958Z,77.69
2018-12-22T05:03:08.178Z,77.28
2018-12-22T05:08:10.495Z,77.96
2018-12-22T05:13:13.426Z,77.08
2018-12-22T05:18:15.661Z,77.12
2018-12-22T05:23:17.901Z,77.86
2018-12-22T05:28:20.152Z,77.91
2018-12-22T05:33:22.460Z,77.92
2018-12-22T05:38:24.813Z,77.49
2018-12-22T05:43:27.244Z,78.41
2018-12-22T05:48:29.486Z,78.91
2018-12-22T05:53:31.842Z,79.33
2018-12-22T05:58:34.085Z,79.91
2018-12-22T06:03:36.318Z,79.46
2018-12-22T06:08:38.685Z,78.63
2018-12-22T06:13:41.285Z,78.05
2018-12-22T06:18:43.529Z,78.10
2018-12-22T06:23:45.813Z,78.30
2018-12-22T06:28:48.087Z,77.70
2018-12-22T06:33:50.471Z,77.39
2018-12-22T06:38:52.719Z,76.67
2018-12-22T06:43:55.049Z,76.50
2018-12-22T06:48:57.385Z,74.22
2018-12-22T06:53:59.627Z,73.24
2018-12-22T06:59:03.358Z,74.40
2018-12-22T07:04:09.431Z,73.37
2018-12-22T07:09:11.857Z,72.89
2018-12-22T07:14:14.085Z,73.16
2018-12-22T07:19:16.372Z,73.05
2018-12-22T07:24:18.687Z,74.42
2018-12-22T07:29:20.951Z,74.40
2018-12-22T07:34:23.246Z,74.78
2018-12-22T07:39:25.484Z,74.76
2018-12-22T07:44:27.837Z,75.01
2018-12-22T07:49:30.064Z,75.73
2018-12-22T07:54:33.307Z,75.15
2018-12-22T07:59:35.613Z,75.15
2018-12-22T08:04:37.852Z,74.63
2018-12-22T08:09:40.061Z,75.67
2018-12-22T08:14:42.393Z,74.79
2018-12-22T08:19:44.782Z,75.24
2018-12-22T08:24:47.021Z,74.62
2018-12-22T08:29:49.317Z,73.48
2018-12-22T08:34:59.191Z,73.14
2018-12-22T08:40:01.637Z,74.11
2018-12-22T08:45:05.010Z,73.15
2018-12-22T08:50:09.688Z,72.31
2018-12-22T08:55:12.246Z,71.94
2018-12-22T09:00:14.998Z,73.04
2018-12-22T09:05:17.313Z,71.67
2018-12-22T09:10:19.657Z,72.46
2018-12-22T09:15:23.902Z,73.64
2018-12-22T09:20:26.171Z,74.31
2018-12-22T09:25:29.437Z,75.28
2018-12-22T09:30:31.806Z,77.08
2018-12-22T09:35:34.047Z,75.52
2018-12-22T09:40:36.320Z,73.51
2018-12-22T09:45:38.565Z,75.09
2018-12-22T09:50:40.789Z,76.80
2018-12-22T09:55:43.195Z,76.54
2018-12-22T10:00:45.587Z,77.97
2018-12-22T10:05:50.699Z,77.70
2018-12-22T10:10:52.941Z,77.53
2018-12-22T10:15:55.244Z,77.32
2018-12-22T10:20:57.511Z,76.85
2018-12-22T10:25:59.883Z,75.18
2018-12-22T10:31:03.641Z,74.25
2018-12-22T10:36:06.359Z,73.76
2018-12-22T10:41:08.695Z,75.78
2018-12-22T10:46:12.128Z,74.40
2018-12-22T10:51:14.358Z,74.37
2018-12-22T10:56:16.614Z,72.41
2018-12-22T11:01:26.199Z,74.93
2018-12-22T11:06:23.206Z,78.14
2018-12-22T11:11:25.695Z,79.33
2018-12-22T11:16:27.937Z,83.78
2018-12-22T11:21:30.185Z,87.99
2018-12-22T11:26:33.020Z,89.08
2018-12-22T11:31:35.498Z,89.86
2018-12-22T11:36:37.781Z,88.63
2018-12-22T11:41:40.091Z,89.31
2018-12-22T11:46:42.582Z,90.25
2018-12-22T11:51:45.169Z,90.39
2018-12-22T11:56:47.397Z,92.48
2018-12-22T12:01:49.847Z,92.59
2018-12-22T12:06:52.263Z,93.39
2018-12-22T12:11:54.512Z,93.44
2018-12-22T12:18:08.818Z,93.93
2018-12-22T12:23:11.057Z,93.25
2018-12-22T12:28:13.469Z,92.12
2018-12-22T12:33:15.788Z,92.10
2018-12-22T12:38:18.049Z,92.11
2018-12-22T12:43:20.534Z,91.28
2018-12-22T12:48:24.181Z,91.30
2018-12-22T12:53:26.433Z,91.04
2018-12-22T12:58:28.681Z,91.47
2018-12-22T13:03:30.973Z,90.70
2018-12-22T13:08:33.208Z,90.14
2018-12-22T13:13:42.158Z,91.58
2018-12-22T13:18:44.410Z,91.77
2018-12-22T13:23:46.703Z,92.49
2018-12-22T13:28:48.984Z,91.28
2018-12-22T13:33:51.317Z,91.25
2018-12-22T13:39:04.707Z,93.13
2018-12-22T13:44:06.946Z,93.23
2018-12-22T13:49:09.337Z,93.35
2018-12-22T13:54:12.696Z,93.64
2018-12-22T13:59:14.921Z,93.11
2018-12-22T14:04:17.193Z,93.96
2018-12-22T14:09:19.521Z,93.66
2018-12-22T14:14:25.607Z,94.16
2018-12-22T14:19:27.956Z,95.09
2018-12-22T14:24:39.771Z,95.89
2018-12-22T14:29:42.391Z,96.17
2018-12-22T14:34:49.139Z,96.46
2018-12-22T14:39:51.489Z,96.72
2018-12-22T14:44:53.725Z,97.11
2018-12-22T14:49:55.972Z,96.88
2018-12-22T15:00:27.602Z,97.07
2018-12-22T15:05:29.942Z,96.79
2018-12-22T15:10:33.860Z,97.01
2018-12-22T15:15:36.413Z,97.01
2018-12-22T15:20:38.737Z,96.66
2018-12-22T15:25:40.967Z,95.96
2018-12-22T15:30:43.258Z,96.05
2018-12-22T15:35:45.629Z,95.64
2018-12-22T15:40:47.924Z,95.35
2018-12-22T15:45:50.225Z,95.50
2018-12-22T15:50:52.486Z,93.62
2018-12-22T15:55:54.972Z,94.28
2018-12-22T16:00:57.431Z,91.76
2018-12-22T16:05:59.921Z,91.33
2018-12-22T16:11:02.421Z,91.27
2018-12-22T16:16:05.102Z,89.05
2018-12-22T16:21:07.537Z,89.01
2018-12-22T16:26:09.952Z,89.29
2018-12-22T16:31:12.427Z,89.12
2018-12-22T16:36:15.267Z,89.06
2018-12-22T16:41:17.553Z,89.08
2018-12-22T16:46:20.009Z,89.62
2018-12-22T16:51:22.366Z,91.88
2018-12-22T16:56:24.645Z,92.46
2018-12-22T17:01:40.028Z,92.26
2018-12-22T17:06:42.324Z,92.33
2018-12-22T17:11:44.597Z,91.59
2018-12-22T17:16:47.304Z,92.33
2018-12-22T17:21:55.377Z,92.78
2018-12-22T17:26:58.665Z,92.50
2018-12-22T17:32:01.146Z,91.56
2018-12-22T17:37:03.656Z,90.99
2018-12-22T17:42:06.466Z,90.26
2018-12-22T17:47:08.746Z,90.52
2018-12-22T17:52:11.021Z,90.98
2018-12-22T17:57:13.775Z,90.43
2018-12-22T18:02:16.144Z,89.09
2018-12-22T18:07:18.502Z,88.22
2018-12-22T18:12:20.778Z,86.69
2018-12-22T18:17:23.064Z,87.37
2018-12-22T18:22:25.376Z,86.93
2018-12-22T18:27:27.718Z,85.70
2018-12-22T18:32:29.973Z,85.76
2018-12-22T18:37:32.322Z,85.16
2018-12-22T18:42:34.594Z,85.68
2018-12-22T18:47:37.069Z,85.56
2018-12-22T18:52:39.299Z,86.11
2018-12-22T18:57:41.575Z,84.65
2018-12-22T19:02:43.945Z,85.14
2018-12-22T19:07:46.208Z,86.19
2018-12-22T19:12:48.811Z,86.05
2018-12-22T19:17:55.128Z,84.90
2018-12-22T19:22:58.021Z,85.54
2018-12-22T19:28:00.350Z,84.57
2018-12-22T19:33:02.582Z,84.32
2018-12-22T19:38:05.029Z,84.40
2018-12-22T19:43:07.430Z,83.76
2018-12-22T19:48:09.641Z,82.92
2018-12-22T19:53:12.056Z,82.02
2018-12-22T19:58:14.271Z,82.37
2018-12-22T20:03:16.498Z,81.72
2018-12-22T20:08:18.794Z,80.99
2018-12-22T20:13:21.314Z,81.35
2018-12-22T20:18:23.682Z,79.33
2018-12-22T20:23:25.948Z,79.01
2018-12-22T20:28:28.243Z,79.30
2018-12-22T20:33:30.586Z,81.52
2018-12-22T20:38:32.849Z,80.36
2018-12-22T20:43:35.207Z,80.80
2018-12-22T20:48:37.414Z,80.47
2018-12-22T20:53:39.621Z,82.17
2018-12-22T20:58:41.830Z,82.13
2018-12-22T21:03:44.291Z,81.33
2018-12-22T21:08:46.724Z,82.15
2018-12-22T21:13:48.939Z,83.70
2018-12-22T21:18:51.205Z,86.43
2018-12-22T21:23:53.432Z,87.18
2018-12-22T21:28:55.828Z,89.09
2018-12-22T21:33:58.060Z,89.01
2018-12-22T21:39:00.575Z,89.72
2018-12-22T21:44:02.917Z,89.21
2018-12-22T21:49:05.454Z,91.17
2018-12-22T21:54:07.835Z,90.59
2018-12-22T21:59:10.877Z,91.47
2018-12-22T22:04:13.550Z,91.36
2018-12-22T22:09:19.257Z,90.49
2018-12-22T22:14:23.051Z,91.16
2018-12-22T22:19:26.402Z,88.49
2018-12-22T22:24:28.722Z,90.19
2018-12-22T22:29:32.170Z,89.08
2018-12-22T22:34:34.534Z,88.78
2018-12-22T22:39:36.967Z,86.92
2018-12-22T22:44:39.671Z,88.26
2018-12-22T22:49:41.969Z,86.99
2018-12-22T22:54:44.260Z,87.62
2018-12-22T22:59:46.579Z,88.27
2018-12-22T23:04:54.340Z,87.07
2018-12-22T23:09:53.173Z,88.46
2018-12-22T23:14:55.463Z,88.67
2018-12-22T23:19:57.756Z,88.56
2018-12-22T23:24:59.968Z,88.23
2018-12-22T23:30:02.686Z,87.71
2018-12-22T23:35:06.261Z,86.91
2018-12-22T23:40:08.716Z,87.63
2018-12-22T23:45:10.962Z,86.73
2018-12-22T23:50:13.194Z,86.22
2018-12-22T23:55:15.701Z,85.49
